Estación de El Cardal INIA
Ultimos registro cada 15 minutos 63
| N° | Estación | Fecha / Hora | Temperatura | Humedad | Lluvia | Velocidad | Dirección | Radiación | Presion |
| 63 | El Cardal INIA | 06-05-2026 15:30 | 10,9 | 79,1 | 0 | 1,7 | 244 | 180 | 1005 |
| 62 | El Cardal INIA | 06-05-2026 15:15 | 10,8 | 78 | 0 | 0,9 | 252 | 210 | 1004 |
| 61 | El Cardal INIA | 06-05-2026 15:00 | 10,6 | 78,3 | 0 | 0,9 | 245 | 189 | 1004 |
| 60 | El Cardal INIA | 06-05-2026 14:45 | 10,3 | 79,9 | 0 | 0,9 | 245 | 192 | 1004 |
| 59 | El Cardal INIA | 06-05-2026 14:30 | 10,2 | 77,6 | 0 | 0,8 | 247 | 185 | 1004 |
| 58 | El Cardal INIA | 06-05-2026 14:15 | 10 | 79 | 0 | 0,7 | 247 | 159 | 1004 |
| 57 | El Cardal INIA | 06-05-2026 14:00 | 9,8 | 78 | 0 | 1,7 | 238 | 158 | 1003 |
| 56 | El Cardal INIA | 06-05-2026 13:45 | 9,6 | 81,4 | 0 | 1,8 | 244 | 145 | 1003 |
| 55 | El Cardal INIA | 06-05-2026 13:30 | 9,5 | 82 | 0 | 1,9 | 234 | 96 | 1003 |
| 54 | El Cardal INIA | 06-05-2026 13:15 | 9,4 | 84 | 0 | 1,3 | 236 | 109 | 1003 |
| 53 | El Cardal INIA | 06-05-2026 13:00 | 9,2 | 85,7 | 0 | 1,7 | 244 | 100 | 1003 |
| 52 | El Cardal INIA | 06-05-2026 12:45 | 9,2 | 84,3 | 0 | 2 | 240 | 141 | 1003 |
| 51 | El Cardal INIA | 06-05-2026 12:30 | 9 | 86 | 0 | 1,9 | 243 | 131 | 1003 |
| 50 | El Cardal INIA | 06-05-2026 12:15 | 8,8 | 87,6 | 0 | 1,7 | 244 | 87 | 1002 |
| 49 | El Cardal INIA | 06-05-2026 12:00 | 8,6 | 90,2 | 0 | 1,4 | 241 | 74 | 1002 |
| 48 | El Cardal INIA | 06-05-2026 11:45 | 8,4 | 91,4 | 0 | 1,8 | 238 | 70 | 1002 |
| 47 | El Cardal INIA | 06-05-2026 11:30 | 8,1 | 92,7 | 0 | 1,9 | 236 | 53 | 1002 |
| 46 | El Cardal INIA | 06-05-2026 11:15 | 8 | 94,1 | 0 | 1,4 | 246 | 33 | 1001 |
| 45 | El Cardal INIA | 06-05-2026 11:00 | 8 | 94,6 | 0 | 0,3 | 250 | 35 | 1001 |
| 44 | El Cardal INIA | 06-05-2026 10:45 | 8 | 94,6 | 0 | 0,6 | 227 | 54 | 1001 |
| 43 | El Cardal INIA | 06-05-2026 10:30 | 8 | 95,4 | 0 | 1 | 251 | 53 | 1001 |
| 42 | El Cardal INIA | 06-05-2026 10:15 | 8 | 96 | 0 | 0,7 | 250 | 44 | 1000 |
| 41 | El Cardal INIA | 06-05-2026 10:00 | 8,1 | 96 | 0 | 0,7 | 246 | 45 | 1000 |
| 40 | El Cardal INIA | 06-05-2026 09:45 | 8,1 | 96,5 | 0 | 0,3 | 233 | 35 | 1000 |
| 39 | El Cardal INIA | 06-05-2026 09:30 | 8,1 | 96,8 | 0 | 0,2 | 244 | 24 | 1000 |
| 38 | El Cardal INIA | 06-05-2026 09:15 | 8,2 | 96,8 | 0,1 | 0,5 | 241 | 8 | 1000 |
| 37 | El Cardal INIA | 06-05-2026 09:00 | 8,3 | 97 | 0,3 | 1,1 | 239 | 10 | 999 |
| 36 | El Cardal INIA | 06-05-2026 08:45 | 8,3 | 97,3 | 0,3 | 0,7 | 253 | 7 | 999 |
| 35 | El Cardal INIA | 06-05-2026 08:30 | 8,2 | 97,4 | 0,1 | 0,1 | 214 | 7 | 999 |
| 34 | El Cardal INIA | 06-05-2026 08:15 | 8,2 | 97,5 | 0,3 | 0,3 | 230 | 6 | 999 |
| 33 | El Cardal INIA | 06-05-2026 08:00 | 8,3 | 97,6 | 0,1 | 0 | 0 | 2 | 999 |
| 32 | El Cardal INIA | 06-05-2026 07:45 | 8,4 | 97,7 | 0 | 0,3 | 253 | 0 | 999 |
| 31 | El Cardal INIA | 06-05-2026 07:30 | 8,5 | 97,9 | 0,1 | 0,3 | 240 | 0 | 998 |
| 30 | El Cardal INIA | 06-05-2026 07:15 | 8,6 | 98,1 | 0,4 | 0,2 | 261 | 0 | 998 |
| 29 | El Cardal INIA | 06-05-2026 07:00 | 8,6 | 98,7 | 0,2 | 0,5 | 243 | 0 | 998 |
| 28 | El Cardal INIA | 06-05-2026 06:45 | 8,7 | 98,5 | 0,8 | 0,3 | 238 | 0 | 998 |
| 27 | El Cardal INIA | 06-05-2026 06:30 | 8,8 | 98,8 | 0,2 | 0 | 0 | 0 | 998 |
| 26 | El Cardal INIA | 06-05-2026 06:15 | 8,8 | 98,8 | 0 | 0,2 | 244 | 0 | 998 |
| 25 | El Cardal INIA | 06-05-2026 06:00 | 8,8 | 98,9 | 0 | 0,3 | 248 | 0 | 998 |
| 24 | El Cardal INIA | 06-05-2026 05:45 | 8,8 | 99,1 | 0 | 0,2 | 271 | 0 | 998 |
| 23 | El Cardal INIA | 06-05-2026 05:30 | 8,8 | 99,2 | 0 | 0,2 | 257 | 0 | 997 |
| 22 | El Cardal INIA | 06-05-2026 05:15 | 8,8 | 99,1 | 0 | 0 | 0 | 0 | 998 |
| 21 | El Cardal INIA | 06-05-2026 05:00 | 8,9 | 98,7 | 0,8 | 0 | 0 | 0 | 997 |
| 20 | El Cardal INIA | 06-05-2026 04:45 | 9 | 98,5 | 1,5 | 0 | 0 | 0 | 998 |
| 19 | El Cardal INIA | 06-05-2026 04:30 | 9,1 | 98,5 | 1,1 | 0 | 0 | 0 | 998 |
| 18 | El Cardal INIA | 06-05-2026 04:15 | 9,1 | 98,8 | 0,8 | 0 | 0 | 0 | 998 |
| 17 | El Cardal INIA | 06-05-2026 04:00 | 9,1 | 99,1 | 0,8 | 0 | 0 | 0 | 998 |
| 16 | El Cardal INIA | 06-05-2026 03:45 | 9,1 | 98,8 | 0,8 | 0 | 0 | 0 | 998 |
| 15 | El Cardal INIA | 06-05-2026 03:30 | 9,2 | 98,6 | 0,8 | 0 | 0 | 0 | 998 |
| 14 | El Cardal INIA | 06-05-2026 03:15 | 9,3 | 98,4 | 0,9 | 0 | 0 | 0 | 998 |
| 13 | El Cardal INIA | 06-05-2026 03:00 | 9,4 | 98,4 | 1,2 | 0 | 0 | 0 | 998 |
| 12 | El Cardal INIA | 06-05-2026 02:45 | 9,4 | 98,2 | 1,9 | 0 | 0 | 0 | 998 |
| 11 | El Cardal INIA | 06-05-2026 02:30 | 9,6 | 98,2 | 2,2 | 0 | 0 | 0 | 998 |
| 10 | El Cardal INIA | 06-05-2026 02:15 | 9,7 | 97,9 | 1,9 | 0 | 0 | 0 | 998 |
| 9 | El Cardal INIA | 06-05-2026 02:00 | 10 | 97,6 | 1,4 | 0 | 228 | 0 | 998 |
| 8 | El Cardal INIA | 06-05-2026 01:45 | 10,5 | 97,1 | 2,3 | 0 | 0 | 0 | 998 |
| 7 | El Cardal INIA | 06-05-2026 01:30 | 11,3 | 96,3 | 2,3 | 0 | 193 | 0 | 998 |
| 6 | El Cardal INIA | 06-05-2026 01:15 | 12,9 | 94,8 | 0 | 0,1 | 242 | 0 | 998 |
| 5 | El Cardal INIA | 06-05-2026 01:00 | 13,2 | 95,3 | 0,1 | 0 | 0 | 0 | 997 |
| 4 | El Cardal INIA | 06-05-2026 00:45 | 13,2 | 94,5 | 0 | 0 | 0 | 0 | 997 |
| 3 | El Cardal INIA | 06-05-2026 00:30 | 13,3 | 94,4 | 0 | 0 | 0 | 0 | 997 |
| 2 | El Cardal INIA | 06-05-2026 00:15 | 13,3 | 93,9 | 0 | 0,5 | 10 | 0 | 998 |
| 1 | El Cardal INIA | 06-05-2026 00:00 | 13,4 | 92,9 | 0 | 0,6 | 352 | 0 | 998 |